createdAt,value
2022-11-05T00:04:29.703Z,4.10
2022-11-05T00:07:36.803Z,4.50
2022-11-05T00:10:26.566Z,4.90
2022-11-05T00:13:30.706Z,3.70
2022-11-05T00:16:34.378Z,4.25
2022-11-05T00:19:19.388Z,3.90
2022-11-05T00:22:23.061Z,3.90
2022-11-05T00:25:14.218Z,3.75
2022-11-05T00:28:03.339Z,3.92
2022-11-05T00:30:48.673Z,4.03
2022-11-05T00:33:33.741Z,4.07
2022-11-05T00:36:18.522Z,4.10
2022-11-05T00:39:05.180Z,4.32
2022-11-05T00:42:10.095Z,3.90
2022-11-05T00:45:00.955Z,3.50
2022-11-05T00:48:05.137Z,3.97
2022-11-05T00:50:50.284Z,3.78
2022-11-05T00:53:35.205Z,3.50
2022-11-05T00:56:19.997Z,3.90
2022-11-05T00:59:04.858Z,3.55
2022-11-05T01:46:09.747Z,3.40
2022-11-05T01:49:02.783Z,3.90
2022-11-05T01:51:48.922Z,3.50
2022-11-05T01:54:34.913Z,3.22
2022-11-05T01:57:20.480Z,3.63
2022-11-05T02:00:16.988Z,3.45
2022-11-05T02:45:46.841Z,3.13
2022-11-05T02:48:41.112Z,3.17
2022-11-05T02:51:47.922Z,3.15
2022-11-05T02:54:38.354Z,3.15
2022-11-05T02:57:23.150Z,2.90
2022-11-05T03:47:30.190Z,2.78
2022-11-05T03:50:18.413Z,2.77
2022-11-05T03:53:15.913Z,2.50
2022-11-05T03:56:03.213Z,2.53
2022-11-05T03:58:48.754Z,2.63
2022-11-05T04:45:46.937Z,2.53
2022-11-05T04:48:32.177Z,2.78
2022-11-05T04:51:17.968Z,2.20
2022-11-05T04:54:04.331Z,2.60
2022-11-05T04:56:49.744Z,2.25
2022-11-05T04:59:35.194Z,2.17
2022-11-05T05:30:43.748Z,2.28
2022-11-05T05:33:28.689Z,2.20
2022-11-05T05:36:13.528Z,2.47
2022-11-05T05:38:58.514Z,2.03
2022-11-05T05:41:43.617Z,1.90
2022-11-05T05:44:28.588Z,2.20
2022-11-05T05:47:14.160Z,2.38
2022-11-05T05:49:59.281Z,2.07
2022-11-05T05:52:44.136Z,1.90
2022-11-05T05:55:28.884Z,2.10
2022-11-05T05:58:13.922Z,2.10
2022-11-05T06:01:02.943Z,2.25
2022-11-05T06:03:48.907Z,2.00
2022-11-05T06:06:34.169Z,2.25
2022-11-05T06:09:18.983Z,2.10
2022-11-05T06:12:04.390Z,2.28
2022-11-05T06:14:49.448Z,2.00
2022-11-05T06:17:34.478Z,1.97
2022-11-05T06:20:19.549Z,2.03
2022-11-05T06:23:04.431Z,2.15
2022-11-05T06:25:49.276Z,2.30
2022-11-05T06:28:34.639Z,1.80
2022-11-05T06:31:20.320Z,1.97
2022-11-05T06:34:05.430Z,2.00
2022-11-05T06:36:50.386Z,2.10
2022-11-05T06:39:35.263Z,1.85
2022-11-05T06:42:20.609Z,2.15
2022-11-05T06:45:06.648Z,2.10
2022-11-05T06:47:56.146Z,2.00
2022-11-05T06:50:43.897Z,2.00
2022-11-05T06:53:28.961Z,2.15
2022-11-05T06:56:15.212Z,2.10
2022-11-05T06:59:00.304Z,1.83
2022-11-05T07:01:45.992Z,2.15
2022-11-05T07:04:31.586Z,2.30
2022-11-05T07:07:17.833Z,2.10
2022-11-05T07:10:03.264Z,2.17
2022-11-05T07:12:48.610Z,1.90
2022-11-05T07:15:34.631Z,1.90
2022-11-05T07:18:20.366Z,2.28
2022-11-05T07:21:06.208Z,2.10
2022-11-05T07:23:51.974Z,2.10
2022-11-05T07:26:36.998Z,1.70
2022-11-05T07:29:22.522Z,1.80
2022-11-05T07:32:07.503Z,2.33
2022-11-05T07:34:52.744Z,2.00
2022-11-05T07:37:45.151Z,2.00
2022-11-05T07:40:30.217Z,1.80
2022-11-05T07:43:15.341Z,1.95
2022-11-05T07:46:00.268Z,2.05
2022-11-05T07:48:45.074Z,2.05
2022-11-05T07:51:29.938Z,2.00
2022-11-05T07:54:14.834Z,1.80
2022-11-05T07:57:01.308Z,1.83
2022-11-05T07:59:46.442Z,2.20
2022-11-05T08:02:31.844Z,1.92
2022-11-05T08:05:17.413Z,1.80
2022-11-05T08:08:02.546Z,1.90
2022-11-05T08:10:47.938Z,1.73
2022-11-05T08:13:33.667Z,1.98
2022-11-05T08:16:19.033Z,1.60
2022-11-05T08:19:04.673Z,2.20
2022-11-05T08:21:49.662Z,1.73
2022-11-05T08:24:34.549Z,1.95
2022-11-05T08:27:19.791Z,1.90
2022-11-05T08:30:05.941Z,1.77
2022-11-05T08:32:51.670Z,1.52
2022-11-05T08:35:37.092Z,1.87
2022-11-05T08:38:22.384Z,1.73
2022-11-05T08:41:07.237Z,1.80
2022-11-05T08:43:54.446Z,1.90
2022-11-05T08:46:41.674Z,1.60
2022-11-05T08:49:26.854Z,1.80
2022-11-05T08:52:11.605Z,2.50
2022-11-05T08:54:56.473Z,2.90
2022-11-05T08:57:41.479Z,2.63
2022-11-05T09:00:27.488Z,3.05
2022-11-05T09:03:13.108Z,3.00
2022-11-05T09:05:58.477Z,2.67
2022-11-05T09:08:43.329Z,2.40
2022-11-05T09:11:49.683Z,2.80
2022-11-05T09:14:33.463Z,2.47
2022-11-05T09:17:19.439Z,2.33
2022-11-05T09:20:05.015Z,2.20
2022-11-05T09:22:50.030Z,2.10
2022-11-05T09:25:35.210Z,2.30
2022-11-05T09:28:22.276Z,2.10
2022-11-05T09:31:08.919Z,2.40
2022-11-05T09:33:54.231Z,2.60
2022-11-05T09:36:39.139Z,2.47
2022-11-05T09:39:24.058Z,2.40
2022-11-05T09:42:11.940Z,2.35
2022-11-05T09:44:59.659Z,2.30
2022-11-05T09:47:48.297Z,2.40
2022-11-05T09:50:35.824Z,2.33
2022-11-05T09:53:23.089Z,2.30
2022-11-05T09:56:19.084Z,2.38
2022-11-05T09:59:26.248Z,2.20
2022-11-05T10:02:17.267Z,2.08
2022-11-05T10:05:09.915Z,2.20
2022-11-05T10:07:55.145Z,2.10
2022-11-05T10:10:43.251Z,2.30
2022-11-05T10:13:48.500Z,2.10
2022-11-05T10:16:39.465Z,2.33
2022-11-05T10:19:26.193Z,1.80
2022-11-05T10:22:13.701Z,2.20
2022-11-05T10:24:59.370Z,2.10
2022-11-05T10:27:47.833Z,1.97
2022-11-05T10:30:32.976Z,2.15
2022-11-05T10:33:36.943Z,1.95
2022-11-05T10:36:23.506Z,2.10
2022-11-05T10:39:15.463Z,2.00
2022-11-05T10:42:16.095Z,1.80
2022-11-05T10:45:07.204Z,2.22
2022-11-05T10:47:58.259Z,2.28
2022-11-05T10:50:43.990Z,2.50
2022-11-05T10:53:31.043Z,2.72
2022-11-05T10:56:34.793Z,2.33
2022-11-05T10:59:24.533Z,1.95
2022-11-05T11:02:19.755Z,2.20
2022-11-05T11:05:04.719Z,1.90
2022-11-05T11:07:57.764Z,1.83
2022-11-05T11:10:50.624Z,2.00
2022-11-05T11:13:50.150Z,1.80
2022-11-05T11:16:37.332Z,1.60
2022-11-05T11:19:33.507Z,2.03
2022-11-05T11:22:20.062Z,1.90
2022-11-05T11:25:25.661Z,1.80
2022-11-05T11:28:15.967Z,1.80
2022-11-05T11:31:24.080Z,1.90
2022-11-05T11:34:14.941Z,1.75
2022-11-05T11:37:21.672Z,1.98
2022-11-05T11:40:13.189Z,2.00
2022-11-05T11:42:59.564Z,1.80
2022-11-05T11:45:51.908Z,1.75
2022-11-05T11:48:40.042Z,1.50
2022-11-05T11:51:40.642Z,1.63
2022-11-05T11:54:29.029Z,2.00
2022-11-05T11:57:20.640Z,1.67
2022-11-05T12:00:09.812Z,1.55
2022-11-05T12:03:15.151Z,1.63
2022-11-05T12:06:06.729Z,1.63
2022-11-05T12:09:01.979Z,1.90
2022-11-05T12:12:27.271Z,1.50
2022-11-05T12:15:11.971Z,1.50
2022-11-05T12:18:00.345Z,1.90
2022-11-05T12:20:50.039Z,1.50
2022-11-05T12:23:42.995Z,1.70
2022-11-05T12:26:40.258Z,1.60
2022-11-05T12:29:38.654Z,1.67
2022-11-05T12:32:33.718Z,1.50
2022-11-05T12:35:31.210Z,1.50
2022-11-05T12:38:34.953Z,1.57
2022-11-05T12:41:26.307Z,1.40
2022-11-05T12:44:20.664Z,1.60
2022-11-05T12:47:08.714Z,1.65
2022-11-05T12:50:00.229Z,1.50
2022-11-05T12:53:08.443Z,1.63
2022-11-05T12:55:54.451Z,1.60
2022-11-05T12:58:54.881Z,1.50
2022-11-05T13:01:43.585Z,1.60
2022-11-05T13:04:31.763Z,1.58
2022-11-05T13:07:19.574Z,1.47
2022-11-05T13:10:21.061Z,1.67
2022-11-05T13:13:24.738Z,1.35
2022-11-05T13:16:13.588Z,1.50
2022-11-05T13:19:02.696Z,1.75
2022-11-05T13:21:50.630Z,1.53
2022-11-05T13:24:48.705Z,1.65
2022-11-05T13:27:52.716Z,1.80
2022-11-05T13:30:41.504Z,1.60
2022-11-05T13:33:29.348Z,1.90
2022-11-05T13:36:39.607Z,2.10
2022-11-05T13:39:31.230Z,2.25
2022-11-05T13:42:22.554Z,2.78
2022-11-05T13:45:25.998Z,2.42
2022-11-05T13:48:29.828Z,1.45
2022-11-05T13:51:38.627Z,1.50
2022-11-05T13:54:36.880Z,1.45
2022-11-05T13:57:31.510Z,2.47
2022-11-05T14:00:21.144Z,2.28
2022-11-05T14:03:07.369Z,1.95
2022-11-05T14:05:55.198Z,1.67
2022-11-05T14:08:41.262Z,1.83
2022-11-05T14:11:31.937Z,1.70
2022-11-05T14:14:23.267Z,1.60
2022-11-05T14:17:08.365Z,1.70
2022-11-05T14:20:02.873Z,1.67
2022-11-05T14:22:48.029Z,1.52
2022-11-05T14:25:36.055Z,1.92
2022-11-05T14:28:36.891Z,1.25
2022-11-05T14:31:40.988Z,1.52
2022-11-05T14:34:43.027Z,1.53
2022-11-05T14:37:37.084Z,2.03
2022-11-05T14:40:22.861Z,1.60
2022-11-05T14:43:14.340Z,1.55
2022-11-05T14:46:06.122Z,1.65
2022-11-05T14:48:52.758Z,1.87
2022-11-05T14:51:45.966Z,1.40
2022-11-05T14:54:42.939Z,1.50
2022-11-05T14:57:43.110Z,1.77
2022-11-05T15:00:28.520Z,1.70
2022-11-05T15:03:32.450Z,1.30
2022-11-05T15:06:28.574Z,1.60
2022-11-05T15:09:14.023Z,1.60
2022-11-05T15:12:18.943Z,1.70
2022-11-05T15:15:21.451Z,1.50
2022-11-05T15:18:25.540Z,1.50
2022-11-05T15:21:13.999Z,1.63
2022-11-05T15:23:59.058Z,1.90
2022-11-05T15:26:53.628Z,1.45
2022-11-05T15:29:38.785Z,1.50
2022-11-05T15:32:25.308Z,1.57
2022-11-05T15:35:17.560Z,1.02
2022-11-05T15:38:02.955Z,1.60
2022-11-05T15:40:47.960Z,1.60
2022-11-05T15:43:32.873Z,1.63
2022-11-05T15:46:19.946Z,1.57
2022-11-05T15:49:07.018Z,1.58
2022-11-05T15:51:51.849Z,1.58
2022-11-05T15:54:37.009Z,1.27
2022-11-05T15:57:27.758Z,1.75
2022-11-05T16:00:17.526Z,1.20
2022-11-05T16:03:05.863Z,1.92
2022-11-05T16:05:51.299Z,1.33
2022-11-05T16:08:36.410Z,1.35
2022-11-05T16:11:22.669Z,1.30
2022-11-05T16:14:19.077Z,1.27
2022-11-05T16:17:17.450Z,1.50
2022-11-05T16:20:02.690Z,1.80
2022-11-05T16:22:48.627Z,1.40
2022-11-05T16:25:38.014Z,1.50
2022-11-05T16:28:24.747Z,1.33
2022-11-05T16:31:10.054Z,1.45
2022-11-05T16:33:55.863Z,1.30
2022-11-05T16:36:41.468Z,1.63
2022-11-05T16:39:26.887Z,1.40
2022-11-05T16:42:24.820Z,1.63
2022-11-05T16:45:12.170Z,1.23
2022-11-05T16:47:57.581Z,1.67
2022-11-05T16:50:42.897Z,1.30
2022-11-05T16:53:28.331Z,1.30
2022-11-05T16:56:15.367Z,1.20
2022-11-05T16:59:00.468Z,1.60
2022-11-05T17:01:45.542Z,1.33
2022-11-05T17:04:30.870Z,1.42
2022-11-05T17:07:16.457Z,1.50
2022-11-05T17:10:02.393Z,1.40
2022-11-05T17:12:48.389Z,1.40
2022-11-05T17:15:37.008Z,1.20
2022-11-05T17:18:22.399Z,1.23
2022-11-05T17:21:08.927Z,1.30
2022-11-05T17:23:54.388Z,1.37
2022-11-05T17:26:39.764Z,1.80
2022-11-05T17:29:25.269Z,1.83
2022-11-05T17:32:11.011Z,1.98
2022-11-05T17:34:56.869Z,1.90
2022-11-05T17:37:42.576Z,1.97
2022-11-05T17:40:28.937Z,1.75
2022-11-05T17:43:15.549Z,1.50
2022-11-05T17:46:04.508Z,1.75
2022-11-05T17:48:50.618Z,1.50
2022-11-05T17:51:35.557Z,1.60
2022-11-05T17:54:20.915Z,1.60
2022-11-05T17:57:06.725Z,1.90
2022-11-05T17:59:52.518Z,1.55
2022-11-05T18:02:38.886Z,1.55
2022-11-05T18:05:27.856Z,1.40
2022-11-05T18:08:13.650Z,1.50
2022-11-05T18:10:59.160Z,1.50
2022-11-05T18:13:44.529Z,1.77
2022-11-05T18:16:30.135Z,1.70
2022-11-05T18:19:15.582Z,1.67
2022-11-05T18:22:00.999Z,1.60
2022-11-05T18:24:47.234Z,1.98
2022-11-05T18:27:35.160Z,1.70
2022-11-05T18:30:20.421Z,1.83
2022-11-05T18:33:06.002Z,1.90
2022-11-05T18:35:51.139Z,1.80
2022-11-05T18:38:36.914Z,1.70
2022-11-05T18:41:22.255Z,1.90
2022-11-05T18:44:08.777Z,1.77
2022-11-05T18:46:58.883Z,1.90
2022-11-05T18:49:44.696Z,1.70
2022-11-05T18:52:31.963Z,1.77
2022-11-05T18:55:18.953Z,1.70
2022-11-05T18:58:04.125Z,2.00
2022-11-05T19:00:49.555Z,1.70
2022-11-05T19:03:35.277Z,1.80
2022-11-05T19:06:27.010Z,1.83
2022-11-05T19:09:12.825Z,1.58
2022-11-05T19:11:59.062Z,1.77
2022-11-05T19:14:44.750Z,1.90
2022-11-05T19:17:31.424Z,1.75
2022-11-05T19:20:17.257Z,2.08
2022-11-05T19:23:02.822Z,2.22
2022-11-05T19:25:48.049Z,1.75
2022-11-05T19:28:34.034Z,1.70
2022-11-05T19:31:20.776Z,1.73
2022-11-05T19:34:06.252Z,2.13
2022-11-05T19:36:52.436Z,1.90
2022-11-05T19:39:38.692Z,1.83
2022-11-05T19:42:24.637Z,2.20
2022-11-05T19:45:30.832Z,1.92
2022-11-05T19:48:19.470Z,1.65
2022-11-05T19:51:06.028Z,1.70
2022-11-05T19:53:52.823Z,1.77
2022-11-05T19:56:38.601Z,2.00
2022-11-05T19:59:23.711Z,1.90
2022-11-05T20:02:15.799Z,1.98
2022-11-05T20:05:01.875Z,1.98
2022-11-05T20:07:52.549Z,2.15
2022-11-05T20:10:38.936Z,1.70
2022-11-05T20:13:24.836Z,1.95
2022-11-05T20:16:21.148Z,1.75
2022-11-05T20:19:07.536Z,1.60
2022-11-05T20:21:52.562Z,1.90
2022-11-05T20:24:38.253Z,2.10
2022-11-05T20:27:23.807Z,1.63
2022-11-05T20:30:09.464Z,1.67
2022-11-05T20:32:55.290Z,1.70
2022-11-05T20:35:41.659Z,1.73
2022-11-05T20:38:26.833Z,2.00
2022-11-05T20:41:12.720Z,1.85
2022-11-05T20:43:58.118Z,1.90
2022-11-05T20:46:43.823Z,2.55
2022-11-05T20:49:29.120Z,1.60
2022-11-05T20:52:17.122Z,1.97
2022-11-05T20:55:02.360Z,1.70
2022-11-05T20:57:47.695Z,1.70
2022-11-05T21:00:33.662Z,1.73
2022-11-05T21:03:19.030Z,1.67
2022-11-05T21:06:05.742Z,1.80
2022-11-05T21:08:51.998Z,1.80
2022-11-05T21:11:57.157Z,1.80
2022-11-05T21:14:42.886Z,1.65
2022-11-05T21:17:28.278Z,1.70
2022-11-05T21:20:14.019Z,1.70
2022-11-05T21:22:59.068Z,2.00
2022-11-05T21:25:45.032Z,1.70
2022-11-05T21:28:30.309Z,1.90
2022-11-05T21:31:15.808Z,1.80
2022-11-05T21:34:00.978Z,1.70
2022-11-05T21:36:47.372Z,1.95
2022-11-05T21:39:35.709Z,1.67
2022-11-05T21:42:20.822Z,2.05
2022-11-05T21:45:06.183Z,1.75
2022-11-05T21:47:51.369Z,1.90
2022-11-05T21:50:58.168Z,2.05
2022-11-05T21:54:02.088Z,1.83
2022-11-05T21:57:10.534Z,1.90
2022-11-05T21:59:57.500Z,1.85
2022-11-05T22:02:42.650Z,1.90
2022-11-05T22:05:27.905Z,1.80
2022-11-05T22:08:13.298Z,2.28
2022-11-05T22:10:58.929Z,1.90
2022-11-05T22:13:44.548Z,2.10
2022-11-05T22:16:30.126Z,2.00
2022-11-05T22:19:15.214Z,2.10
2022-11-05T22:22:00.875Z,2.10
2022-11-05T22:24:46.407Z,1.98
2022-11-05T22:27:31.628Z,2.17
2022-11-05T22:30:16.749Z,2.20
2022-11-05T22:33:03.105Z,2.30
2022-11-05T22:35:48.922Z,2.20
2022-11-05T22:38:34.057Z,2.20
2022-11-05T22:41:21.850Z,2.20
2022-11-05T22:44:07.015Z,2.00
2022-11-05T22:46:52.501Z,2.20
2022-11-05T22:49:37.375Z,2.60
2022-11-05T22:52:22.219Z,2.30
2022-11-05T22:55:07.532Z,2.42
2022-11-05T22:57:52.664Z,2.30
2022-11-05T23:00:38.336Z,2.70
2022-11-05T23:03:26.710Z,2.80
2022-11-05T23:06:38.546Z,2.90
2022-11-05T23:09:43.304Z,3.60
2022-11-05T23:12:33.315Z,3.60
2022-11-05T23:15:37.120Z,4.22
2022-11-05T23:18:40.837Z,3.67
2022-11-05T23:21:44.839Z,3.97
2022-11-05T23:24:30.103Z,4.40
2022-11-05T23:27:15.452Z,4.07
2022-11-05T23:30:01.672Z,4.22
2022-11-05T23:32:47.078Z,4.72
2022-11-05T23:35:52.999Z,4.20
2022-11-05T23:38:38.173Z,4.63
2022-11-05T23:41:41.952Z,4.80
2022-11-05T23:44:45.989Z,5.32
2022-11-05T23:47:50.177Z,5.00
2022-11-05T23:50:39.496Z,4.88
2022-11-05T23:53:25.692Z,5.25
2022-11-05T23:56:14.902Z,5.07
2022-11-05T23:59:00.612Z,5.13
